sensor_id;sensor_type;location;lat;lon;timestamp;P1;durP1;ratioP1;P2;durP2;ratioP2
69534;SDS011;56754;51.568;5.048;2022-12-07T00:01:38;5.50;;;2.13;;
69534;SDS011;56754;51.568;5.048;2022-12-07T00:04:05;5.63;;;1.95;;
69534;SDS011;56754;51.568;5.048;2022-12-07T00:06:32;5.17;;;1.70;;
69534;SDS011;56754;51.568;5.048;2022-12-07T00:08:59;5.50;;;1.90;;
69534;SDS011;56754;51.568;5.048;2022-12-07T00:11:24;4.13;;;1.90;;
69534;SDS011;56754;51.568;5.048;2022-12-07T00:13:57;6.60;;;2.00;;
69534;SDS011;56754;51.568;5.048;2022-12-07T00:16:25;5.80;;;2.13;;
69534;SDS011;56754;51.568;5.048;2022-12-07T00:18:52;5.03;;;2.00;;
69534;SDS011;56754;51.568;5.048;2022-12-07T00:21:35;4.90;;;1.90;;
69534;SDS011;56754;51.568;5.048;2022-12-07T00:24:01;6.57;;;2.17;;
69534;SDS011;56754;51.568;5.048;2022-12-07T00:26:28;5.10;;;2.00;;
69534;SDS011;56754;51.568;5.048;2022-12-07T00:29:02;5.57;;;2.00;;
69534;SDS011;56754;51.568;5.048;2022-12-07T00:31:31;5.07;;;2.00;;
69534;SDS011;56754;51.568;5.048;2022-12-07T00:33:58;5.17;;;2.03;;
69534;SDS011;56754;51.568;5.048;2022-12-07T00:36:24;5.43;;;2.15;;
69534;SDS011;56754;51.568;5.048;2022-12-07T00:38:50;7.30;;;2.53;;
69534;SDS011;56754;51.568;5.048;2022-12-07T00:41:16;5.27;;;2.30;;
69534;SDS011;56754;51.568;5.048;2022-12-07T00:43:44;5.43;;;2.15;;
69534;SDS011;56754;51.568;5.048;2022-12-07T00:46:10;5.00;;;2.08;;
69534;SDS011;56754;51.568;5.048;2022-12-07T00:48:36;4.67;;;2.03;;
69534;SDS011;56754;51.568;5.048;2022-12-07T00:51:02;5.68;;;1.95;;
69534;SDS011;56754;51.568;5.048;2022-12-07T00:53:28;4.85;;;1.73;;
69534;SDS011;56754;51.568;5.048;2022-12-07T00:55:54;6.20;;;2.30;;
69534;SDS011;56754;51.568;5.048;2022-12-07T00:58:19;6.82;;;2.30;;
69534;SDS011;56754;51.568;5.048;2022-12-07T01:00:45;5.90;;;2.17;;
69534;SDS011;56754;51.568;5.048;2022-12-07T01:03:11;6.03;;;2.10;;
69534;SDS011;56754;51.568;5.048;2022-12-07T01:05:38;6.18;;;2.00;;
69534;SDS011;56754;51.568;5.048;2022-12-07T01:08:04;6.00;;;2.25;;
69534;SDS011;56754;51.568;5.048;2022-12-07T01:10:30;6.00;;;2.07;;
69534;SDS011;56754;51.568;5.048;2022-12-07T01:12:56;4.63;;;1.80;;
69534;SDS011;56754;51.568;5.048;2022-12-07T01:15:21;5.03;;;1.80;;
69534;SDS011;56754;51.568;5.048;2022-12-07T01:17:47;5.18;;;1.67;;
69534;SDS011;56754;51.568;5.048;2022-12-07T01:20:12;5.30;;;2.00;;
69534;SDS011;56754;51.568;5.048;2022-12-07T01:22:41;5.23;;;2.13;;
69534;SDS011;56754;51.568;5.048;2022-12-07T01:25:08;5.03;;;2.00;;
69534;SDS011;56754;51.568;5.048;2022-12-07T01:27:34;6.10;;;2.10;;
69534;SDS011;56754;51.568;5.048;2022-12-07T01:30:00;4.45;;;1.70;;
69534;SDS011;56754;51.568;5.048;2022-12-07T01:32:27;5.93;;;1.83;;
69534;SDS011;56754;51.568;5.048;2022-12-07T01:34:53;5.25;;;1.80;;
69534;SDS011;56754;51.568;5.048;2022-12-07T01:37:19;5.53;;;1.67;;
69534;SDS011;56754;51.568;5.048;2022-12-07T01:39:44;4.77;;;1.70;;
69534;SDS011;56754;51.568;5.048;2022-12-07T01:42:12;5.40;;;1.92;;
69534;SDS011;56754;51.568;5.048;2022-12-07T01:47:41;4.10;;;1.60;;
69534;SDS011;56754;51.568;5.048;2022-12-07T01:50:14;6.43;;;2.00;;
69534;SDS011;56754;51.568;5.048;2022-12-07T01:52:40;5.47;;;1.80;;
69534;SDS011;56754;51.568;5.048;2022-12-07T01:55:09;7.57;;;1.80;;
69534;SDS011;56754;51.568;5.048;2022-12-07T01:57:38;5.25;;;1.58;;
69534;SDS011;56754;51.568;5.048;2022-12-07T02:00:08;5.43;;;1.60;;
69534;SDS011;56754;51.568;5.048;2022-12-07T02:02:36;5.40;;;1.73;;
69534;SDS011;56754;51.568;5.048;2022-12-07T02:05:06;4.28;;;1.60;;
69534;SDS011;56754;51.568;5.048;2022-12-07T02:07:32;4.28;;;1.70;;
69534;SDS011;56754;51.568;5.048;2022-12-07T02:12:39;3.75;;;1.20;;
69534;SDS011;56754;51.568;5.048;2022-12-07T02:15:05;4.43;;;1.50;;
69534;SDS011;56754;51.568;5.048;2022-12-07T02:28:59;4.63;;;1.50;;
69534;SDS011;56754;51.568;5.048;2022-12-07T02:31:41;5.15;;;2.25;;
69534;SDS011;56754;51.568;5.048;2022-12-07T02:34:47;5.30;;;1.60;;
69534;SDS011;56754;51.568;5.048;2022-12-07T02:40:04;4.28;;;1.40;;
69534;SDS011;56754;51.568;5.048;2022-12-07T02:42:36;3.88;;;1.42;;
69534;SDS011;56754;51.568;5.048;2022-12-07T02:45:05;5.05;;;1.60;;
69534;SDS011;56754;51.568;5.048;2022-12-07T02:47:33;5.63;;;1.50;;
69534;SDS011;56754;51.568;5.048;2022-12-07T02:50:02;5.80;;;1.60;;
69534;SDS011;56754;51.568;5.048;2022-12-07T02:52:29;5.47;;;1.70;;
69534;SDS011;56754;51.568;5.048;2022-12-07T02:54:54;5.70;;;1.50;;
69534;SDS011;56754;51.568;5.048;2022-12-07T03:00:02;4.72;;;1.60;;
69534;SDS011;56754;51.568;5.048;2022-12-07T03:08:10;3.90;;;1.33;;
69534;SDS011;56754;51.568;5.048;2022-12-07T03:10:57;5.37;;;1.73;;
69534;SDS011;56754;51.568;5.048;2022-12-07T03:13:30;4.68;;;1.33;;
69534;SDS011;56754;51.568;5.048;2022-12-07T03:16:21;4.95;;;1.50;;
69534;SDS011;56754;51.568;5.048;2022-12-07T03:21:26;5.57;;;1.60;;
69534;SDS011;56754;51.568;5.048;2022-12-07T03:23:58;6.37;;;1.60;;
69534;SDS011;56754;51.568;5.048;2022-12-07T03:26:28;4.05;;;1.33;;
69534;SDS011;56754;51.568;5.048;2022-12-07T03:28:58;5.40;;;1.40;;
69534;SDS011;56754;51.568;5.048;2022-12-07T03:31:29;4.82;;;1.65;;
69534;SDS011;56754;51.568;5.048;2022-12-07T03:36:40;4.67;;;1.50;;
69534;SDS011;56754;51.568;5.048;2022-12-07T03:39:21;5.10;;;1.60;;
69534;SDS011;56754;51.568;5.048;2022-12-07T03:41:48;5.97;;;1.65;;
69534;SDS011;56754;51.568;5.048;2022-12-07T03:44:14;4.70;;;1.50;;
69534;SDS011;56754;51.568;5.048;2022-12-07T03:57:50;6.25;;;1.60;;
69534;SDS011;56754;51.568;5.048;2022-12-07T04:00:19;4.03;;;1.40;;
69534;SDS011;56754;51.568;5.048;2022-12-07T04:02:44;4.82;;;1.40;;
69534;SDS011;56754;51.568;5.048;2022-12-07T04:05:10;6.07;;;1.43;;
69534;SDS011;56754;51.568;5.048;2022-12-07T04:07:35;5.03;;;1.60;;
69534;SDS011;56754;51.568;5.048;2022-12-07T04:10:01;5.23;;;1.50;;
69534;SDS011;56754;51.568;5.048;2022-12-07T04:12:26;5.07;;;1.77;;
69534;SDS011;56754;51.568;5.048;2022-12-07T04:14:51;6.73;;;1.63;;
69534;SDS011;56754;51.568;5.048;2022-12-07T04:17:17;4.93;;;1.50;;
69534;SDS011;56754;51.568;5.048;2022-12-07T04:19:42;5.20;;;1.60;;
69534;SDS011;56754;51.568;5.048;2022-12-07T04:22:07;4.77;;;1.20;;
69534;SDS011;56754;51.568;5.048;2022-12-07T04:24:33;5.28;;;1.65;;
69534;SDS011;56754;51.568;5.048;2022-12-07T04:26:58;6.87;;;1.83;;
69534;SDS011;56754;51.568;5.048;2022-12-07T04:29:24;7.67;;;1.80;;
69534;SDS011;56754;51.568;5.048;2022-12-07T04:31:50;5.75;;;1.80;;
69534;SDS011;56754;51.568;5.048;2022-12-07T04:34:16;5.43;;;1.42;;
69534;SDS011;56754;51.568;5.048;2022-12-07T04:36:42;7.07;;;1.58;;
69534;SDS011;56754;51.568;5.048;2022-12-07T04:39:13;5.13;;;1.70;;
69534;SDS011;56754;51.568;5.048;2022-12-07T04:41:46;6.45;;;1.50;;
69534;SDS011;56754;51.568;5.048;2022-12-07T04:44:11;4.60;;;1.93;;
69534;SDS011;56754;51.568;5.048;2022-12-07T04:46:38;3.75;;;1.13;;
69534;SDS011;56754;51.568;5.048;2022-12-07T04:49:03;4.17;;;1.40;;
69534;SDS011;56754;51.568;5.048;2022-12-07T04:51:29;4.53;;;1.47;;
69534;SDS011;56754;51.568;5.048;2022-12-07T04:53:54;4.97;;;1.48;;
69534;SDS011;56754;51.568;5.048;2022-12-07T04:56:21;5.43;;;1.40;;
69534;SDS011;56754;51.568;5.048;2022-12-07T04:58:47;3.77;;;1.30;;
69534;SDS011;56754;51.568;5.048;2022-12-07T05:01:13;5.32;;;1.45;;
69534;SDS011;56754;51.568;5.048;2022-12-07T05:03:40;4.63;;;1.30;;
69534;SDS011;56754;51.568;5.048;2022-12-07T05:06:06;5.77;;;1.47;;
69534;SDS011;56754;51.568;5.048;2022-12-07T05:08:32;3.92;;;1.27;;
69534;SDS011;56754;51.568;5.048;2022-12-07T05:10:58;3.47;;;1.30;;
69534;SDS011;56754;51.568;5.048;2022-12-07T05:13:23;5.57;;;1.40;;
69534;SDS011;56754;51.568;5.048;2022-12-07T05:15:49;3.77;;;1.23;;
69534;SDS011;56754;51.568;5.048;2022-12-07T05:18:15;3.97;;;1.38;;
69534;SDS011;56754;51.568;5.048;2022-12-07T05:20:40;5.40;;;1.40;;
69534;SDS011;56754;51.568;5.048;2022-12-07T05:23:08;6.55;;;1.40;;
69534;SDS011;56754;51.568;5.048;2022-12-07T05:25:33;4.60;;;1.30;;
69534;SDS011;56754;51.568;5.048;2022-12-07T05:27:59;5.23;;;1.97;;
69534;SDS011;56754;51.568;5.048;2022-12-07T05:30:25;4.90;;;1.43;;
69534;SDS011;56754;51.568;5.048;2022-12-07T05:32:51;4.13;;;1.27;;
69534;SDS011;56754;51.568;5.048;2022-12-07T05:35:16;4.13;;;1.20;;
69534;SDS011;56754;51.568;5.048;2022-12-07T05:37:42;4.07;;;1.20;;
69534;SDS011;56754;51.568;5.048;2022-12-07T05:40:07;4.10;;;1.30;;
69534;SDS011;56754;51.568;5.048;2022-12-07T05:42:33;4.00;;;1.05;;
69534;SDS011;56754;51.568;5.048;2022-12-07T05:44:58;5.17;;;1.30;;
69534;SDS011;56754;51.568;5.048;2022-12-07T05:47:24;3.60;;;1.43;;
69534;SDS011;56754;51.568;5.048;2022-12-07T05:49:49;5.60;;;1.50;;
69534;SDS011;56754;51.568;5.048;2022-12-07T05:52:14;4.07;;;1.30;;
69534;SDS011;56754;51.568;5.048;2022-12-07T05:54:40;4.23;;;1.10;;
69534;SDS011;56754;51.568;5.048;2022-12-07T05:57:05;5.13;;;1.33;;
69534;SDS011;56754;51.568;5.048;2022-12-07T05:59:30;4.90;;;1.30;;
69534;SDS011;56754;51.568;5.048;2022-12-07T06:04:27;4.03;;;1.40;;
69534;SDS011;56754;51.568;5.048;2022-12-07T06:06:55;6.13;;;1.52;;
69534;SDS011;56754;51.568;5.048;2022-12-07T06:09:21;3.47;;;1.23;;
69534;SDS011;56754;51.568;5.048;2022-12-07T06:11:47;8.30;;;1.50;;
69534;SDS011;56754;51.568;5.048;2022-12-07T06:14:13;4.97;;;1.55;;
69534;SDS011;56754;51.568;5.048;2022-12-07T06:16:38;4.47;;;1.40;;
69534;SDS011;56754;51.568;5.048;2022-12-07T06:19:03;6.30;;;1.60;;
69534;SDS011;56754;51.568;5.048;2022-12-07T06:21:29;5.83;;;1.70;;
69534;SDS011;56754;51.568;5.048;2022-12-07T06:23:54;4.37;;;1.50;;
69534;SDS011;56754;51.568;5.048;2022-12-07T06:26:19;4.67;;;1.23;;
69534;SDS011;56754;51.568;5.048;2022-12-07T06:28:45;3.83;;;1.20;;
69534;SDS011;56754;51.568;5.048;2022-12-07T06:31:10;5.13;;;1.40;;
69534;SDS011;56754;51.568;5.048;2022-12-07T06:33:35;4.03;;;1.30;;
69534;SDS011;56754;51.568;5.048;2022-12-07T06:36:00;4.63;;;1.60;;
69534;SDS011;56754;51.568;5.048;2022-12-07T06:38:26;4.60;;;1.53;;
69534;SDS011;56754;51.568;5.048;2022-12-07T06:40:51;4.73;;;1.10;;
69534;SDS011;56754;51.568;5.048;2022-12-07T06:43:16;3.90;;;1.37;;
69534;SDS011;56754;51.568;5.048;2022-12-07T06:45:42;5.97;;;1.33;;
69534;SDS011;56754;51.568;5.048;2022-12-07T06:48:07;3.53;;;1.10;;
69534;SDS011;56754;51.568;5.048;2022-12-07T06:50:32;6.83;;;1.27;;
69534;SDS011;56754;51.568;5.048;2022-12-07T06:52:58;5.43;;;1.23;;
69534;SDS011;56754;51.568;5.048;2022-12-07T06:55:23;5.50;;;1.23;;
69534;SDS011;56754;51.568;5.048;2022-12-07T06:57:48;4.93;;;1.57;;
69534;SDS011;56754;51.568;5.048;2022-12-07T07:00:14;4.70;;;1.50;;
69534;SDS011;56754;51.568;5.048;2022-12-07T07:02:40;6.03;;;1.60;;
69534;SDS011;56754;51.568;5.048;2022-12-07T07:05:05;4.80;;;1.40;;
69534;SDS011;56754;51.568;5.048;2022-12-07T07:07:30;5.57;;;1.73;;
69534;SDS011;56754;51.568;5.048;2022-12-07T07:09:56;4.00;;;1.30;;
69534;SDS011;56754;51.568;5.048;2022-12-07T07:12:21;4.80;;;1.10;;
69534;SDS011;56754;51.568;5.048;2022-12-07T07:14:46;5.33;;;1.20;;
69534;SDS011;56754;51.568;5.048;2022-12-07T07:17:11;4.50;;;1.40;;
69534;SDS011;56754;51.568;5.048;2022-12-07T07:19:37;5.33;;;1.50;;
69534;SDS011;56754;51.568;5.048;2022-12-07T07:22:02;5.27;;;1.67;;
69534;SDS011;56754;51.568;5.048;2022-12-07T07:24:27;4.13;;;1.33;;
69534;SDS011;56754;51.568;5.048;2022-12-07T07:26:53;5.23;;;1.43;;
69534;SDS011;56754;51.568;5.048;2022-12-07T07:29:18;4.50;;;1.17;;
69534;SDS011;56754;51.568;5.048;2022-12-07T07:31:43;4.57;;;1.57;;
69534;SDS011;56754;51.568;5.048;2022-12-07T07:34:08;5.17;;;1.50;;
69534;SDS011;56754;51.568;5.048;2022-12-07T07:36:34;7.23;;;1.57;;
69534;SDS011;56754;51.568;5.048;2022-12-07T07:38:59;4.40;;;1.33;;
69534;SDS011;56754;51.568;5.048;2022-12-07T07:41:24;5.67;;;1.33;;
69534;SDS011;56754;51.568;5.048;2022-12-07T07:43:49;4.07;;;1.20;;
69534;SDS011;56754;51.568;5.048;2022-12-07T07:46:15;6.37;;;1.50;;
69534;SDS011;56754;51.568;5.048;2022-12-07T07:48:40;4.07;;;1.40;;
69534;SDS011;56754;51.568;5.048;2022-12-07T07:51:06;6.83;;;1.47;;
69534;SDS011;56754;51.568;5.048;2022-12-07T07:53:31;3.90;;;1.30;;
69534;SDS011;56754;51.568;5.048;2022-12-07T07:55:57;4.13;;;1.20;;
69534;SDS011;56754;51.568;5.048;2022-12-07T07:58:22;5.67;;;1.50;;
69534;SDS011;56754;51.568;5.048;2022-12-07T08:00:47;4.80;;;1.50;;
69534;SDS011;56754;51.568;5.048;2022-12-07T08:03:12;6.50;;;1.30;;
69534;SDS011;56754;51.568;5.048;2022-12-07T08:05:38;4.50;;;1.30;;
69534;SDS011;56754;51.568;5.048;2022-12-07T08:08:03;3.67;;;1.25;;
69534;SDS011;56754;51.568;5.048;2022-12-07T08:10:29;6.67;;;1.30;;
69534;SDS011;56754;51.568;5.048;2022-12-07T08:12:55;5.85;;;1.52;;
69534;SDS011;56754;51.568;5.048;2022-12-07T08:15:20;6.80;;;1.60;;
69534;SDS011;56754;51.568;5.048;2022-12-07T08:17:45;5.47;;;1.30;;
69534;SDS011;56754;51.568;5.048;2022-12-07T08:20:12;4.85;;;1.23;;
69534;SDS011;56754;51.568;5.048;2022-12-07T08:22:37;4.60;;;1.00;;
69534;SDS011;56754;51.568;5.048;2022-12-07T08:25:03;4.33;;;1.10;;
69534;SDS011;56754;51.568;5.048;2022-12-07T08:27:28;5.63;;;1.60;;
69534;SDS011;56754;51.568;5.048;2022-12-07T08:29:53;5.30;;;1.20;;
69534;SDS011;56754;51.568;5.048;2022-12-07T08:32:18;4.27;;;1.40;;
69534;SDS011;56754;51.568;5.048;2022-12-07T08:34:44;4.40;;;1.20;;
69534;SDS011;56754;51.568;5.048;2022-12-07T08:37:09;4.73;;;1.10;;
69534;SDS011;56754;51.568;5.048;2022-12-07T08:39:34;4.93;;;1.20;;
69534;SDS011;56754;51.568;5.048;2022-12-07T08:41:59;3.80;;;1.10;;
69534;SDS011;56754;51.568;5.048;2022-12-07T08:44:25;3.53;;;1.13;;
69534;SDS011;56754;51.568;5.048;2022-12-07T08:46:51;5.27;;;1.23;;
69534;SDS011;56754;51.568;5.048;2022-12-07T08:49:24;5.55;;;1.50;;
69534;SDS011;56754;51.568;5.048;2022-12-07T08:51:56;3.63;;;1.02;;
69534;SDS011;56754;51.568;5.048;2022-12-07T08:54:21;4.40;;;1.20;;
69534;SDS011;56754;51.568;5.048;2022-12-07T08:56:47;4.13;;;1.10;;
69534;SDS011;56754;51.568;5.048;2022-12-07T08:59:14;4.03;;;0.88;;
69534;SDS011;56754;51.568;5.048;2022-12-07T09:01:42;4.65;;;1.10;;
69534;SDS011;56754;51.568;5.048;2022-12-07T09:04:07;3.73;;;1.37;;
69534;SDS011;56754;51.568;5.048;2022-12-07T09:06:33;4.83;;;1.10;;
69534;SDS011;56754;51.568;5.048;2022-12-07T09:08:58;4.40;;;1.30;;
69534;SDS011;56754;51.568;5.048;2022-12-07T09:11:26;3.83;;;1.20;;
69534;SDS011;56754;51.568;5.048;2022-12-07T09:13:51;6.60;;;1.60;;
69534;SDS011;56754;51.568;5.048;2022-12-07T09:16:17;5.17;;;1.33;;
69534;SDS011;56754;51.568;5.048;2022-12-07T09:18:42;4.53;;;1.00;;
69534;SDS011;56754;51.568;5.048;2022-12-07T09:21:07;6.07;;;1.10;;
69534;SDS011;56754;51.568;5.048;2022-12-07T09:23:33;4.33;;;1.17;;
69534;SDS011;56754;51.568;5.048;2022-12-07T09:26:01;4.65;;;1.00;;
69534;SDS011;56754;51.568;5.048;2022-12-07T09:28:28;5.40;;;1.20;;
69534;SDS011;56754;51.568;5.048;2022-12-07T09:30:55;3.88;;;0.95;;
69534;SDS011;56754;51.568;5.048;2022-12-07T09:33:20;4.57;;;1.20;;
69534;SDS011;56754;51.568;5.048;2022-12-07T09:35:46;6.47;;;1.27;;
69534;SDS011;56754;51.568;5.048;2022-12-07T09:38:12;3.80;;;1.03;;
69534;SDS011;56754;51.568;5.048;2022-12-07T09:40:38;4.17;;;1.10;;
69534;SDS011;56754;51.568;5.048;2022-12-07T09:43:03;4.97;;;0.97;;
69534;SDS011;56754;51.568;5.048;2022-12-07T09:45:35;3.73;;;1.20;;
69534;SDS011;56754;51.568;5.048;2022-12-07T09:48:02;4.72;;;1.05;;
69534;SDS011;56754;51.568;5.048;2022-12-07T09:50:29;3.97;;;1.08;;
69534;SDS011;56754;51.568;5.048;2022-12-07T09:52:58;4.00;;;1.08;;
69534;SDS011;56754;51.568;5.048;2022-12-07T09:55:35;4.13;;;0.97;;
69534;SDS011;56754;51.568;5.048;2022-12-07T09:58:01;5.43;;;1.10;;
69534;SDS011;56754;51.568;5.048;2022-12-07T10:00:28;4.28;;;1.10;;
69534;SDS011;56754;51.568;5.048;2022-12-07T10:03:01;5.07;;;1.65;;
69534;SDS011;56754;51.568;5.048;2022-12-07T10:05:28;4.82;;;1.20;;
69534;SDS011;56754;51.568;5.048;2022-12-07T10:08:01;5.67;;;1.10;;
69534;SDS011;56754;51.568;5.048;2022-12-07T10:10:30;4.35;;;1.00;;
69534;SDS011;56754;51.568;5.048;2022-12-07T10:13:02;5.10;;;1.00;;
69534;SDS011;56754;51.568;5.048;2022-12-07T10:15:43;3.47;;;0.90;;
69534;SDS011;56754;51.568;5.048;2022-12-07T10:21:10;3.50;;;0.90;;
69534;SDS011;56754;51.568;5.048;2022-12-07T10:23:39;4.65;;;1.08;;
69534;SDS011;56754;51.568;5.048;2022-12-07T10:26:27;6.57;;;1.00;;
69534;SDS011;56754;51.568;5.048;2022-12-07T10:31:41;5.13;;;1.00;;
69534;SDS011;56754;51.568;5.048;2022-12-07T10:34:20;5.18;;;1.20;;
69534;SDS011;56754;51.568;5.048;2022-12-07T10:36:47;4.32;;;0.85;;
69534;SDS011;56754;51.568;5.048;2022-12-07T10:39:20;2.70;;;0.80;;
69534;SDS011;56754;51.568;5.048;2022-12-07T10:41:53;4.43;;;0.88;;
69534;SDS011;56754;51.568;5.048;2022-12-07T10:44:21;5.03;;;0.70;;
69534;SDS011;56754;51.568;5.048;2022-12-07T10:47:07;4.28;;;1.20;;
69534;SDS011;56754;51.568;5.048;2022-12-07T10:57:37;5.47;;;1.02;;
69534;SDS011;56754;51.568;5.048;2022-12-07T11:11:20;4.13;;;1.00;;
69534;SDS011;56754;51.568;5.048;2022-12-07T11:22:06;4.05;;;0.80;;
69534;SDS011;56754;51.568;5.048;2022-12-07T11:28:00;4.47;;;0.80;;
69534;SDS011;56754;51.568;5.048;2022-12-07T11:33:45;4.85;;;0.80;;
69534;SDS011;56754;51.568;5.048;2022-12-07T11:36:30;3.63;;;0.90;;
69534;SDS011;56754;51.568;5.048;2022-12-07T11:39:16;4.57;;;0.88;;
69534;SDS011;56754;51.568;5.048;2022-12-07T11:41:45;4.27;;;0.90;;
69534;SDS011;56754;51.568;5.048;2022-12-07T11:46:59;4.78;;;0.82;;
69534;SDS011;56754;51.568;5.048;2022-12-07T11:49:40;3.35;;;0.80;;
69534;SDS011;56754;51.568;5.048;2022-12-07T11:52:24;4.43;;;0.82;;
69534;SDS011;56754;51.568;5.048;2022-12-07T11:54:55;6.63;;;1.10;;
69534;SDS011;56754;51.568;5.048;2022-12-07T11:57:25;4.47;;;0.80;;
69534;SDS011;56754;51.568;5.048;2022-12-07T12:00:04;4.55;;;1.00;;
69534;SDS011;56754;51.568;5.048;2022-12-07T12:02:33;5.72;;;0.82;;
69534;SDS011;56754;51.568;5.048;2022-12-07T12:05:17;4.68;;;0.90;;
69534;SDS011;56754;51.568;5.048;2022-12-07T12:07:46;4.43;;;0.80;;
69534;SDS011;56754;51.568;5.048;2022-12-07T12:10:39;4.50;;;0.80;;
69534;SDS011;56754;51.568;5.048;2022-12-07T12:13:20;5.55;;;0.98;;
69534;SDS011;56754;51.568;5.048;2022-12-07T12:22:11;5.70;;;0.90;;
69534;SDS011;56754;51.568;5.048;2022-12-07T12:24:41;5.40;;;0.70;;
69534;SDS011;56754;51.568;5.048;2022-12-07T12:27:14;3.35;;;0.73;;
69534;SDS011;56754;51.568;5.048;2022-12-07T12:29:50;4.88;;;0.98;;
69534;SDS011;56754;51.568;5.048;2022-12-07T12:37:44;4.05;;;0.80;;
69534;SDS011;56754;51.568;5.048;2022-12-07T12:42:45;3.20;;;0.40;;
69534;SDS011;56754;51.568;5.048;2022-12-07T12:45:21;3.40;;;0.70;;
69534;SDS011;56754;51.568;5.048;2022-12-07T12:48:00;5.30;;;0.80;;
69534;SDS011;56754;51.568;5.048;2022-12-07T12:52:58;4.28;;;1.00;;
69534;SDS011;56754;51.568;5.048;2022-12-07T12:55:44;6.07;;;1.20;;
69534;SDS011;56754;51.568;5.048;2022-12-07T13:00:44;3.23;;;0.53;;
69534;SDS011;56754;51.568;5.048;2022-12-07T13:03:44;4.30;;;0.83;;
69534;SDS011;56754;51.568;5.048;2022-12-07T13:06:19;3.55;;;0.82;;
69534;SDS011;56754;51.568;5.048;2022-12-07T13:08:47;4.68;;;1.00;;
69534;SDS011;56754;51.568;5.048;2022-12-07T13:11:20;3.40;;;0.70;;
69534;SDS011;56754;51.568;5.048;2022-12-07T13:14:35;5.18;;;0.77;;
69534;SDS011;56754;51.568;5.048;2022-12-07T13:16:58;4.03;;;0.80;;
69534;SDS011;56754;51.568;5.048;2022-12-07T13:20:39;5.53;;;0.90;;
69534;SDS011;56754;51.568;5.048;2022-12-07T13:22:52;2.95;;;0.70;;
69534;SDS011;56754;51.568;5.048;2022-12-07T13:27:43;3.83;;;0.80;;
69534;SDS011;56754;51.568;5.048;2022-12-07T13:30:18;4.70;;;0.80;;
69534;SDS011;56754;51.568;5.048;2022-12-07T13:32:51;4.60;;;0.60;;
69534;SDS011;56754;51.568;5.048;2022-12-07T13:38:32;3.50;;;0.70;;
69534;SDS011;56754;51.568;5.048;2022-12-07T13:41:20;4.72;;;0.70;;
69534;SDS011;56754;51.568;5.048;2022-12-07T13:49:18;4.95;;;0.77;;
69534;SDS011;56754;51.568;5.048;2022-12-07T13:51:48;3.93;;;0.50;;
69534;SDS011;56754;51.568;5.048;2022-12-07T13:54:14;3.75;;;0.73;;
69534;SDS011;56754;51.568;5.048;2022-12-07T13:56:40;3.20;;;0.50;;
69534;SDS011;56754;51.568;5.048;2022-12-07T13:59:17;2.53;;;0.43;;
69534;SDS011;56754;51.568;5.048;2022-12-07T14:01:45;2.78;;;0.60;;
69534;SDS011;56754;51.568;5.048;2022-12-07T14:04:29;3.10;;;0.50;;
69534;SDS011;56754;51.568;5.048;2022-12-07T14:06:59;2.95;;;0.60;;
69534;SDS011;56754;51.568;5.048;2022-12-07T14:09:25;4.13;;;0.65;;
69534;SDS011;56754;51.568;5.048;2022-12-07T14:11:52;3.27;;;0.50;;
69534;SDS011;56754;51.568;5.048;2022-12-07T14:14:37;3.75;;;0.60;;
69534;SDS011;56754;51.568;5.048;2022-12-07T14:17:12;2.40;;;0.52;;
69534;SDS011;56754;51.568;5.048;2022-12-07T14:22:55;2.38;;;0.50;;
69534;SDS011;56754;51.568;5.048;2022-12-07T14:25:22;2.30;;;0.53;;
69534;SDS011;56754;51.568;5.048;2022-12-07T14:27:58;2.40;;;0.43;;
69534;SDS011;56754;51.568;5.048;2022-12-07T14:30:29;3.90;;;0.77;;
69534;SDS011;56754;51.568;5.048;2022-12-07T14:33:00;2.58;;;0.50;;
69534;SDS011;56754;51.568;5.048;2022-12-07T14:35:28;3.90;;;0.50;;
69534;SDS011;56754;51.568;5.048;2022-12-07T14:37:54;3.80;;;0.60;;
69534;SDS011;56754;51.568;5.048;2022-12-07T14:40:23;3.13;;;0.57;;
69534;SDS011;56754;51.568;5.048;2022-12-07T14:42:51;3.13;;;0.60;;
69534;SDS011;56754;51.568;5.048;2022-12-07T14:45:21;4.07;;;0.70;;
69534;SDS011;56754;51.568;5.048;2022-12-07T14:47:47;3.22;;;0.60;;
69534;SDS011;56754;51.568;5.048;2022-12-07T14:50:13;6.00;;;0.70;;
69534;SDS011;56754;51.568;5.048;2022-12-07T14:52:40;4.97;;;0.77;;
69534;SDS011;56754;51.568;5.048;2022-12-07T14:55:20;3.08;;;0.60;;
69534;SDS011;56754;51.568;5.048;2022-12-07T14:57:49;5.28;;;0.70;;
69534;SDS011;56754;51.568;5.048;2022-12-07T15:00:14;4.63;;;0.70;;
69534;SDS011;56754;51.568;5.048;2022-12-07T15:02:41;2.83;;;0.63;;
69534;SDS011;56754;51.568;5.048;2022-12-07T15:05:07;6.20;;;1.03;;
69534;SDS011;56754;51.568;5.048;2022-12-07T15:07:33;2.40;;;0.65;;
69534;SDS011;56754;51.568;5.048;2022-12-07T15:09:59;3.47;;;0.70;;
69534;SDS011;56754;51.568;5.048;2022-12-07T15:12:24;4.90;;;1.00;;
69534;SDS011;56754;51.568;5.048;2022-12-07T15:14:49;2.00;;;0.50;;
69534;SDS011;56754;51.568;5.048;2022-12-07T15:17:14;2.17;;;0.57;;
69534;SDS011;56754;51.568;5.048;2022-12-07T15:19:40;2.37;;;0.50;;
69534;SDS011;56754;51.568;5.048;2022-12-07T15:22:05;2.60;;;0.50;;
69534;SDS011;56754;51.568;5.048;2022-12-07T15:24:30;4.13;;;0.63;;
69534;SDS011;56754;51.568;5.048;2022-12-07T15:26:55;3.00;;;0.60;;
69534;SDS011;56754;51.568;5.048;2022-12-07T15:29:21;2.90;;;0.50;;
69534;SDS011;56754;51.568;5.048;2022-12-07T15:31:47;3.13;;;0.60;;
69534;SDS011;56754;51.568;5.048;2022-12-07T15:34:14;2.70;;;0.60;;
69534;SDS011;56754;51.568;5.048;2022-12-07T15:36:39;2.63;;;0.70;;
69534;SDS011;56754;51.568;5.048;2022-12-07T15:39:04;2.50;;;0.57;;
69534;SDS011;56754;51.568;5.048;2022-12-07T15:41:30;2.60;;;0.50;;
69534;SDS011;56754;51.568;5.048;2022-12-07T15:43:55;2.10;;;0.40;;
69534;SDS011;56754;51.568;5.048;2022-12-07T15:46:20;4.10;;;0.60;;
69534;SDS011;56754;51.568;5.048;2022-12-07T15:48:46;2.77;;;0.50;;
69534;SDS011;56754;51.568;5.048;2022-12-07T15:51:11;3.33;;;0.50;;
69534;SDS011;56754;51.568;5.048;2022-12-07T15:53:36;2.87;;;0.60;;
69534;SDS011;56754;51.568;5.048;2022-12-07T15:56:05;3.63;;;0.60;;
69534;SDS011;56754;51.568;5.048;2022-12-07T15:58:31;2.63;;;0.50;;
69534;SDS011;56754;51.568;5.048;2022-12-07T16:00:57;2.33;;;0.60;;
69534;SDS011;56754;51.568;5.048;2022-12-07T16:03:22;3.17;;;0.70;;
69534;SDS011;56754;51.568;5.048;2022-12-07T16:05:50;4.20;;;1.10;;
69534;SDS011;56754;51.568;5.048;2022-12-07T16:08:16;3.28;;;0.45;;
69534;SDS011;56754;51.568;5.048;2022-12-07T16:10:41;2.57;;;0.50;;
69534;SDS011;56754;51.568;5.048;2022-12-07T16:13:07;4.20;;;0.50;;
69534;SDS011;56754;51.568;5.048;2022-12-07T16:15:32;2.93;;;0.50;;
69534;SDS011;56754;51.568;5.048;2022-12-07T16:17:57;3.37;;;0.60;;
69534;SDS011;56754;51.568;5.048;2022-12-07T16:20:23;3.07;;;0.50;;
69534;SDS011;56754;51.568;5.048;2022-12-07T16:22:50;2.87;;;0.70;;
69534;SDS011;56754;51.568;5.048;2022-12-07T16:25:16;2.22;;;0.50;;
69534;SDS011;56754;51.568;5.048;2022-12-07T16:27:41;2.10;;;0.53;;
69534;SDS011;56754;51.568;5.048;2022-12-07T16:30:07;3.33;;;0.70;;
69534;SDS011;56754;51.568;5.048;2022-12-07T16:32:32;2.55;;;0.60;;
69534;SDS011;56754;51.568;5.048;2022-12-07T16:34:58;3.77;;;0.73;;
69534;SDS011;56754;51.568;5.048;2022-12-07T16:37:23;3.63;;;0.63;;
69534;SDS011;56754;51.568;5.048;2022-12-07T16:39:48;2.83;;;0.50;;
69534;SDS011;56754;51.568;5.048;2022-12-07T16:42:13;4.83;;;0.60;;
69534;SDS011;56754;51.568;5.048;2022-12-07T16:44:39;2.90;;;0.50;;
69534;SDS011;56754;51.568;5.048;2022-12-07T16:47:04;1.90;;;0.60;;
69534;SDS011;56754;51.568;5.048;2022-12-07T16:49:29;1.67;;;0.52;;
69534;SDS011;56754;51.568;5.048;2022-12-07T16:51:55;3.03;;;0.70;;
69534;SDS011;56754;51.568;5.048;2022-12-07T16:54:20;2.80;;;0.57;;
69534;SDS011;56754;51.568;5.048;2022-12-07T16:56:45;4.00;;;0.60;;
69534;SDS011;56754;51.568;5.048;2022-12-07T16:59:10;3.00;;;0.60;;